Terminal Aerodrome Forecast
Issued by NWS

Home | Current Version | Previous Version | Text Only | Print | Product List | Glossary On
Versions: 1 2 3 4 5 6 7 8 9 10 11
289
FTUS45 KABQ 110529
TAFFMN
TAF
KFMN 110529Z 1106/1206 VRB05KT P6SM SKC
     FM110800 08006KT P6SM SKC
     FM112000 27007KT P6SM SCT250
     FM120230 VRB05KT P6SM SCT250=

USA.gov is the U.S. government's official web portal to all federal, state and local government web resources and services.